createdAt,value
2023-01-25T00:01:15.543Z,17.02
2023-01-25T00:03:45.365Z,16.60
2023-01-25T00:06:17.762Z,16.67
2023-01-25T00:08:51.809Z,17.90
2023-01-25T00:11:21.614Z,16.77
2023-01-25T00:13:51.456Z,16.50
2023-01-25T00:16:21.303Z,17.00
2023-01-25T00:18:51.649Z,16.50
2023-01-25T00:21:26.173Z,15.82
2023-01-25T00:26:26.059Z,15.88
2023-01-25T00:28:57.475Z,17.08
2023-01-25T00:31:39.313Z,17.08
2023-01-25T00:34:30.957Z,16.42
2023-01-25T00:37:07.214Z,17.20
2023-01-25T00:39:37.028Z,16.73
2023-01-25T00:42:07.196Z,17.33
2023-01-25T00:44:36.963Z,18.23
2023-01-25T00:47:06.939Z,18.05
2023-01-25T00:49:37.815Z,17.83
2023-01-25T00:52:11.072Z,19.02
2023-01-25T00:54:41.392Z,18.38
2023-01-25T00:57:12.141Z,18.38
2023-01-25T00:59:44.455Z,18.38
2023-01-25T01:02:14.621Z,17.85
2023-01-25T01:04:44.452Z,17.27
2023-01-25T01:07:18.609Z,16.75
2023-01-25T01:09:48.401Z,17.90
2023-01-25T01:12:18.463Z,18.45
2023-01-25T01:14:48.347Z,17.35
2023-01-25T01:17:18.134Z,19.27
2023-01-25T01:19:47.893Z,17.88
2023-01-25T01:22:20.268Z,17.88
2023-01-25T01:24:51.047Z,18.77
2023-01-25T01:27:20.837Z,17.90
2023-01-25T01:29:50.613Z,18.65
2023-01-25T01:32:20.570Z,19.98
2023-01-25T01:34:50.524Z,19.52
2023-01-25T01:37:22.869Z,20.90
2023-01-25T01:39:54.369Z,21.17
2023-01-25T01:42:24.295Z,19.38
2023-01-25T01:44:56.481Z,22.17
2023-01-25T01:47:31.634Z,20.45
2023-01-25T01:50:07.032Z,21.25
2023-01-25T01:52:40.657Z,19.50
2023-01-25T01:55:13.916Z,20.60
2023-01-25T01:57:46.175Z,19.05
2023-01-25T02:00:19.161Z,20.13
2023-01-25T02:02:50.389Z,20.88
2023-01-25T02:05:23.401Z,19.02
2023-01-25T02:07:57.717Z,21.02
2023-01-25T02:10:29.597Z,21.25
2023-01-25T02:13:01.121Z,21.95
2023-01-25T02:15:34.368Z,20.15
2023-01-25T02:18:04.263Z,20.73
2023-01-25T02:20:39.642Z,19.92
2023-01-25T02:23:19.361Z,20.58
2023-01-25T02:25:51.881Z,19.95
2023-01-25T02:28:27.134Z,19.83
2023-01-25T02:30:57.084Z,18.48
2023-01-25T02:33:27.846Z,19.55
2023-01-25T02:36:03.326Z,21.77
2023-01-25T02:38:35.767Z,19.77
2023-01-25T02:41:14.705Z,20.30
2023-01-25T02:43:44.514Z,21.83
2023-01-25T02:46:18.825Z,20.00
2023-01-25T02:48:48.708Z,19.98
2023-01-25T02:51:18.563Z,21.08
2023-01-25T02:53:48.444Z,20.13
2023-01-25T02:56:21.552Z,20.05
2023-01-25T02:58:51.859Z,21.00
2023-01-25T03:01:21.990Z,21.08
2023-01-25T03:03:51.807Z,19.60
2023-01-25T03:06:21.631Z,21.85
2023-01-25T03:08:51.738Z,20.88
2023-01-25T03:11:24.225Z,20.17
2023-01-25T03:13:54.098Z,21.35
2023-01-25T03:16:24.124Z,20.20
2023-01-25T03:18:56.829Z,21.50
2023-01-25T03:21:27.223Z,18.38
2023-01-25T03:24:01.612Z,19.92
2023-01-25T03:29:23.745Z,18.13
2023-01-25T03:31:53.704Z,18.90
2023-01-25T03:34:23.605Z,19.80
2023-01-25T03:36:53.527Z,19.23
2023-01-25T03:39:23.283Z,19.95
2023-01-25T03:41:55.650Z,19.67
2023-01-25T03:44:25.502Z,18.52
2023-01-25T03:46:55.419Z,19.30
2023-01-25T03:49:25.247Z,18.25
2023-01-25T03:51:55.041Z,17.65
2023-01-25T03:54:24.977Z,18.50
2023-01-25T03:56:57.423Z,17.25
2023-01-25T03:59:27.540Z,17.45
2023-01-25T04:01:57.476Z,18.05
2023-01-25T04:04:27.273Z,19.33
2023-01-25T04:06:57.133Z,17.00
2023-01-25T04:09:26.962Z,17.75
2023-01-25T04:11:59.351Z,17.30
2023-01-25T04:14:43.732Z,16.55
2023-01-25T04:17:14.428Z,16.38
2023-01-25T04:19:44.363Z,17.25
2023-01-25T04:22:14.178Z,15.45
2023-01-25T04:24:43.974Z,15.82
2023-01-25T04:27:16.345Z,14.80
2023-01-25T04:29:46.126Z,16.40
2023-01-25T04:32:16.011Z,14.43
2023-01-25T04:34:45.881Z,13.35
2023-01-25T04:37:15.826Z,15.85
2023-01-25T04:39:45.643Z,14.50
2023-01-25T04:42:17.982Z,14.10
2023-01-25T04:44:47.722Z,16.67
2023-01-25T04:47:17.499Z,15.45
2023-01-25T04:49:47.298Z,14.95
2023-01-25T04:52:17.088Z,15.23
2023-01-25T04:54:46.929Z,13.27
2023-01-25T04:57:19.423Z,12.75
2023-01-25T04:59:49.172Z,13.10
2023-01-25T05:02:19.100Z,13.25
2023-01-25T05:04:48.979Z,15.55
2023-01-25T05:07:18.812Z,14.88
2023-01-25T05:09:48.617Z,14.02
2023-01-25T05:12:21.025Z,13.48
2023-01-25T05:14:50.902Z,12.93
2023-01-25T05:17:20.760Z,14.10
2023-01-25T05:19:50.580Z,12.88
2023-01-25T05:22:21.448Z,13.05
2023-01-25T05:24:51.651Z,12.20
2023-01-25T05:27:21.816Z,11.48
2023-01-25T05:29:51.597Z,11.77
2023-01-25T05:32:23.355Z,12.55
2023-01-25T05:34:53.523Z,11.45
2023-01-25T05:37:24.502Z,12.23
2023-01-25T05:39:54.308Z,11.10
2023-01-25T05:42:26.710Z,11.63
2023-01-25T05:44:56.555Z,11.65
2023-01-25T05:47:26.361Z,10.48
2023-01-25T05:49:56.197Z,9.63
2023-01-25T05:52:26.122Z,10.35
2023-01-25T05:54:55.961Z,9.63
2023-01-25T05:57:28.916Z,10.40
2023-01-25T05:59:58.709Z,10.55
2023-01-25T06:02:28.528Z,9.90
2023-01-25T06:04:58.458Z,10.57
2023-01-25T06:07:28.620Z,9.75
2023-01-25T06:09:59.518Z,9.52
2023-01-25T06:12:32.153Z,10.05
2023-01-25T06:15:01.940Z,10.02
2023-01-25T06:17:31.738Z,9.05
2023-01-25T06:20:01.524Z,10.98
2023-01-25T06:22:31.466Z,9.38
2023-01-25T06:25:01.242Z,10.45
2023-01-25T06:27:33.949Z,9.80
2023-01-25T06:30:03.774Z,10.40
2023-01-25T06:32:35.254Z,10.45
2023-01-25T06:35:05.157Z,10.43
2023-01-25T06:37:35.128Z,9.77
2023-01-25T06:40:05.122Z,9.82
2023-01-25T06:42:37.686Z,10.18
2023-01-25T06:45:08.946Z,10.68
2023-01-25T06:47:38.888Z,10.32
2023-01-25T06:50:10.244Z,10.18
2023-01-25T06:52:40.088Z,9.27
2023-01-25T06:55:13.995Z,9.38
2023-01-25T06:57:46.470Z,9.80
2023-01-25T07:00:17.761Z,9.27
2023-01-25T07:02:47.874Z,10.55
2023-01-25T07:05:17.942Z,9.85
2023-01-25T07:07:48.910Z,10.27
2023-01-25T07:10:18.914Z,9.43
2023-01-25T07:12:51.319Z,9.25
2023-01-25T07:15:21.115Z,10.18
2023-01-25T07:17:50.906Z,9.73
2023-01-25T07:20:20.765Z,8.93
2023-01-25T07:22:50.547Z,9.93
2023-01-25T07:25:20.314Z,9.05
2023-01-25T07:27:52.731Z,9.73
2023-01-25T07:30:22.819Z,9.60
2023-01-25T07:32:52.653Z,11.45
2023-01-25T07:35:22.417Z,10.05
2023-01-25T07:37:52.277Z,11.15
2023-01-25T07:40:24.285Z,9.30
2023-01-25T07:42:57.025Z,9.82
2023-01-25T07:45:30.505Z,8.65
2023-01-25T07:48:01.413Z,8.43
2023-01-25T07:50:31.558Z,9.65
2023-01-25T07:53:01.349Z,9.60
2023-01-25T07:55:31.117Z,9.25
2023-01-25T07:58:03.475Z,8.93
2023-01-25T08:00:33.196Z,8.60
2023-01-25T08:03:03.037Z,8.43
2023-01-25T08:05:32.848Z,9.07
2023-01-25T08:08:02.865Z,8.77
2023-01-25T08:10:32.667Z,8.50
2023-01-25T08:13:05.135Z,8.50
2023-01-25T08:15:35.187Z,8.38
2023-01-25T08:18:05.091Z,7.90
2023-01-25T08:20:34.888Z,8.15
2023-01-25T08:23:04.761Z,7.72
2023-01-25T08:25:34.568Z,7.70
2023-01-25T08:28:07.915Z,8.32
2023-01-25T08:30:52.005Z,8.45
2023-01-25T08:33:26.168Z,8.55
2023-01-25T08:35:59.179Z,9.07
2023-01-25T08:38:29.212Z,7.97
2023-01-25T08:40:58.981Z,8.18
2023-01-25T08:43:31.393Z,8.07
2023-01-25T08:46:01.371Z,7.80
2023-01-25T08:48:31.190Z,8.32
2023-01-25T08:51:01.477Z,8.63
2023-01-25T08:53:32.917Z,7.90
2023-01-25T08:56:06.650Z,9.00
2023-01-25T08:58:41.067Z,7.72
2023-01-25T09:03:42.977Z,8.65
2023-01-25T09:06:14.456Z,9.05
2023-01-25T09:08:44.968Z,8.13
2023-01-25T09:11:16.475Z,9.07
2023-01-25T09:13:49.136Z,8.10
2023-01-25T09:16:28.045Z,9.85
2023-01-25T09:18:59.369Z,8.07
2023-01-25T09:21:29.701Z,8.10
2023-01-25T09:24:08.220Z,8.38
2023-01-25T09:26:43.046Z,8.07
2023-01-25T09:29:16.907Z,8.98
2023-01-25T09:31:46.774Z,9.75
2023-01-25T09:34:18.273Z,10.50
2023-01-25T09:36:48.116Z,9.15
2023-01-25T09:39:19.519Z,8.68
2023-01-25T09:42:14.593Z,8.70
2023-01-25T09:45:05.821Z,9.27
2023-01-25T09:47:45.242Z,8.60
2023-01-25T09:50:33.875Z,8.30
2023-01-25T09:53:24.420Z,8.05
2023-01-25T09:55:58.922Z,8.57
2023-01-25T10:01:32.881Z,9.18
2023-01-25T10:04:15.015Z,8.43
2023-01-25T10:06:58.827Z,8.38
2023-01-25T10:09:42.633Z,9.07
2023-01-25T10:12:18.713Z,8.77
2023-01-25T10:14:48.652Z,8.80
2023-01-25T10:17:28.440Z,8.70
2023-01-25T10:20:11.339Z,9.43
2023-01-25T10:22:46.534Z,9.88
2023-01-25T10:25:37.500Z,8.65
2023-01-25T10:28:19.674Z,8.50
2023-01-25T10:30:57.921Z,9.30
2023-01-25T10:33:34.851Z,10.10
2023-01-25T10:36:07.578Z,9.07
2023-01-25T10:38:42.348Z,8.35
2023-01-25T10:41:17.262Z,9.02
2023-01-25T10:43:47.111Z,8.55
2023-01-25T10:46:26.466Z,10.07
2023-01-25T10:48:58.970Z,9.02
2023-01-25T10:51:33.696Z,9.75
2023-01-25T10:54:05.711Z,9.68
2023-01-25T10:56:38.068Z,9.02
2023-01-25T10:59:20.320Z,9.45
2023-01-25T11:01:50.276Z,9.30
2023-01-25T11:04:35.427Z,9.73
2023-01-25T11:07:07.113Z,9.50
2023-01-25T11:09:39.775Z,9.10
2023-01-25T11:12:21.014Z,9.98
2023-01-25T11:14:54.940Z,8.95
2023-01-25T11:17:30.560Z,9.43
2023-01-25T11:20:20.644Z,9.80
2023-01-25T11:22:56.165Z,9.73
2023-01-25T11:25:31.731Z,9.27
2023-01-25T11:28:19.044Z,8.80
2023-01-25T11:30:49.678Z,9.70
2023-01-25T11:33:22.033Z,8.43
2023-01-25T11:36:12.237Z,9.73
2023-01-25T11:38:50.088Z,9.45
2023-01-25T11:41:27.858Z,10.20
2023-01-25T11:44:16.265Z,9.85
2023-01-25T11:46:58.885Z,9.52
2023-01-25T11:49:42.586Z,10.05
2023-01-25T11:52:26.443Z,10.60
2023-01-25T11:55:08.195Z,11.37
2023-01-25T11:57:57.265Z,11.13
2023-01-25T12:00:44.067Z,10.38
2023-01-25T12:03:36.408Z,8.98
2023-01-25T12:06:15.027Z,9.23
2023-01-25T12:09:12.768Z,8.45
2023-01-25T12:11:57.231Z,9.65
2023-01-25T12:14:39.290Z,9.00
2023-01-25T12:17:26.583Z,9.40
2023-01-25T12:20:11.986Z,8.88
2023-01-25T12:23:04.817Z,9.20
2023-01-25T12:25:49.196Z,9.43
2023-01-25T12:28:24.028Z,9.75
2023-01-25T12:30:58.205Z,10.35
2023-01-25T12:33:34.923Z,9.82
2023-01-25T12:36:10.924Z,10.10
2023-01-25T12:38:44.675Z,9.90
2023-01-25T12:41:28.769Z,10.43
2023-01-25T12:44:06.738Z,10.43
2023-01-25T12:46:43.083Z,10.07
2023-01-25T12:49:23.612Z,10.05
2023-01-25T12:51:56.300Z,10.30
2023-01-25T12:54:30.762Z,11.23
2023-01-25T12:57:13.398Z,10.13
2023-01-25T12:59:53.064Z,11.02
2023-01-25T13:02:40.150Z,10.73
2023-01-25T13:05:21.821Z,10.88
2023-01-25T13:08:00.610Z,10.20
2023-01-25T13:10:37.189Z,9.63
2023-01-25T13:13:23.590Z,9.20
2023-01-25T13:15:53.532Z,9.40
2023-01-25T13:18:40.350Z,10.20
2023-01-25T13:21:14.806Z,11.00
2023-01-25T13:23:52.136Z,11.23
2023-01-25T13:26:40.614Z,10.90
2023-01-25T13:29:55.203Z,11.20
2023-01-25T13:32:58.955Z,9.80
2023-01-25T13:35:40.748Z,11.50
2023-01-25T13:38:33.547Z,12.48
2023-01-25T13:41:14.434Z,12.95
2023-01-25T13:43:47.319Z,11.98
2023-01-25T13:46:22.143Z,12.30
2023-01-25T13:49:16.570Z,13.25
2023-01-25T13:51:46.709Z,13.10
2023-01-25T13:54:19.247Z,23.73
2023-01-25T13:56:49.145Z,13.10
2023-01-25T13:59:29.620Z,12.85
2023-01-25T14:02:01.699Z,12.63
2023-01-25T14:04:34.479Z,11.88
2023-01-25T14:07:09.977Z,13.00
2023-01-25T14:09:40.009Z,13.30
2023-01-25T14:12:13.640Z,12.57
2023-01-25T14:14:49.423Z,13.90
2023-01-25T14:17:20.954Z,14.05
2023-01-25T14:19:56.277Z,13.82
2023-01-25T14:22:28.464Z,13.75
2023-01-25T14:25:19.992Z,14.43
2023-01-25T14:27:52.522Z,13.88
2023-01-25T14:30:25.345Z,15.25
2023-01-25T14:32:56.864Z,16.08
2023-01-25T14:35:54.566Z,16.05
2023-01-25T14:38:29.644Z,14.05
2023-01-25T14:41:03.648Z,13.85
2023-01-25T14:43:34.146Z,14.32
2023-01-25T14:46:04.057Z,14.63
2023-01-25T14:48:41.593Z,15.25
2023-01-25T14:51:21.588Z,15.05
2023-01-25T14:53:58.386Z,15.50
2023-01-25T14:56:36.515Z,18.65
2023-01-25T14:59:07.685Z,14.68
2023-01-25T15:01:42.025Z,15.27
2023-01-25T15:04:16.234Z,15.32
2023-01-25T15:06:55.171Z,15.63
2023-01-25T15:09:36.006Z,14.63
2023-01-25T15:12:07.920Z,14.48
2023-01-25T15:14:50.760Z,15.07
2023-01-25T15:17:43.205Z,15.07
2023-01-25T15:20:33.883Z,15.85
2023-01-25T15:23:24.471Z,16.65
2023-01-25T15:25:59.182Z,16.35
2023-01-25T15:28:34.413Z,16.08
2023-01-25T15:31:06.247Z,15.10
2023-01-25T15:33:37.611Z,16.98
2023-01-25T15:36:07.893Z,16.50
2023-01-25T15:38:40.338Z,15.70
2023-01-25T15:41:11.169Z,18.13
2023-01-25T15:43:41.413Z,16.88
2023-01-25T15:46:18.536Z,16.75
2023-01-25T15:48:50.073Z,16.92
2023-01-25T15:51:20.453Z,16.88
2023-01-25T15:53:52.911Z,16.13
2023-01-25T15:56:24.857Z,16.38
2023-01-25T15:58:56.549Z,17.80
2023-01-25T16:01:28.356Z,17.50
2023-01-25T16:03:58.572Z,16.27
2023-01-25T16:06:36.600Z,16.85
2023-01-25T16:09:17.081Z,18.83
2023-01-25T16:11:47.260Z,19.08
2023-01-25T16:14:17.117Z,17.40
2023-01-25T16:16:49.193Z,19.75
2023-01-25T16:19:21.999Z,19.67
2023-01-25T16:21:52.645Z,18.63
2023-01-25T16:24:25.097Z,18.48
2023-01-25T16:26:57.085Z,17.95
2023-01-25T16:29:27.411Z,19.02
2023-01-25T16:31:58.027Z,18.65
2023-01-25T16:34:28.018Z,20.73
2023-01-25T16:36:59.811Z,20.85
2023-01-25T16:39:32.392Z,20.27
2023-01-25T16:42:02.241Z,20.48
2023-01-25T16:44:31.993Z,19.00
2023-01-25T16:47:01.766Z,19.98
2023-01-25T16:49:32.047Z,19.75
2023-01-25T16:52:02.479Z,20.73
2023-01-25T16:54:34.842Z,19.50
2023-01-25T16:57:15.075Z,20.17
2023-01-25T16:59:49.367Z,21.08
2023-01-25T17:02:19.309Z,19.52
2023-01-25T17:04:49.132Z,20.25
2023-01-25T17:07:18.846Z,18.20
2023-01-25T17:09:51.227Z,20.17
2023-01-25T17:12:21.059Z,20.95
2023-01-25T17:14:50.883Z,21.80
2023-01-25T17:17:20.671Z,19.95
2023-01-25T17:19:52.171Z,20.00
2023-01-25T17:22:22.014Z,22.95
2023-01-25T17:24:55.765Z,21.50
2023-01-25T17:27:26.041Z,20.73
2023-01-25T17:29:55.899Z,21.95
2023-01-25T17:32:26.027Z,21.30
2023-01-25T17:34:59.105Z,21.00
2023-01-25T17:37:29.962Z,20.73
2023-01-25T17:40:02.356Z,21.90
2023-01-25T17:42:33.042Z,21.05
2023-01-25T17:45:02.842Z,19.67
2023-01-25T17:47:35.326Z,20.67
2023-01-25T17:50:05.328Z,17.17
2023-01-25T17:52:35.106Z,19.08
2023-01-25T17:55:08.747Z,19.20
2023-01-25T17:57:38.551Z,19.73
2023-01-25T18:00:11.954Z,18.67
2023-01-25T18:02:42.043Z,19.05
2023-01-25T18:05:12.109Z,19.17
2023-01-25T18:07:41.897Z,20.25
2023-01-25T18:10:15.409Z,21.13
2023-01-25T18:13:03.670Z,20.20
2023-01-25T18:15:34.398Z,19.42
2023-01-25T18:18:04.251Z,20.48
2023-01-25T18:20:34.108Z,20.15
2023-01-25T18:23:03.938Z,19.92
2023-01-25T18:25:38.633Z,18.90
2023-01-25T18:28:08.568Z,20.85
2023-01-25T18:30:41.373Z,17.73
2023-01-25T18:33:11.180Z,18.33
2023-01-25T18:35:43.321Z,17.65
2023-01-25T18:38:14.585Z,18.70
2023-01-25T18:40:47.415Z,19.63
2023-01-25T18:43:17.387Z,17.40
2023-01-25T18:45:47.217Z,17.67
2023-01-25T18:48:20.290Z,18.13
2023-01-25T18:50:50.322Z,17.95
2023-01-25T18:53:20.115Z,20.15
2023-01-25T18:56:04.104Z,17.40
2023-01-25T18:58:35.101Z,18.00
2023-01-25T19:01:07.407Z,18.17
2023-01-25T19:03:37.536Z,18.77
2023-01-25T19:06:08.455Z,18.60
2023-01-25T19:08:41.329Z,18.33
2023-01-25T19:11:16.653Z,17.77
2023-01-25T19:13:47.197Z,18.65
2023-01-25T19:16:19.659Z,18.35
2023-01-25T19:18:52.678Z,20.95
2023-01-25T19:21:24.810Z,18.77
2023-01-25T19:23:55.714Z,18.35
2023-01-25T19:26:28.867Z,17.33
2023-01-25T19:28:59.287Z,17.38
2023-01-25T19:31:32.609Z,18.60
2023-01-25T19:34:04.166Z,16.88
2023-01-25T19:36:36.053Z,19.13
2023-01-25T19:39:09.970Z,16.52
2023-01-25T19:41:42.424Z,18.55
2023-01-25T19:44:14.592Z,18.73
2023-01-25T19:46:44.836Z,18.23
2023-01-25T19:49:15.866Z,19.48
2023-01-25T19:51:52.868Z,17.85
2023-01-25T19:54:24.399Z,18.17
2023-01-25T19:56:58.501Z,18.45
2023-01-25T19:59:29.046Z,18.92
2023-01-25T20:01:59.061Z,18.10
2023-01-25T20:04:28.847Z,19.90
2023-01-25T20:06:58.702Z,17.77
2023-01-25T20:09:28.774Z,17.73
2023-01-25T20:12:03.101Z,19.88
2023-01-25T20:17:02.684Z,18.40
2023-01-25T20:19:35.129Z,17.98
2023-01-25T20:22:04.865Z,20.17
2023-01-25T20:24:34.627Z,19.58
2023-01-25T20:27:07.481Z,18.92
2023-01-25T20:29:37.405Z,20.77
2023-01-25T20:32:07.945Z,18.52
2023-01-25T20:34:38.482Z,18.92
2023-01-25T20:37:08.196Z,19.83
2023-01-25T20:39:38.328Z,19.80
2023-01-25T20:42:11.187Z,20.58
2023-01-25T20:44:41.026Z,19.50
2023-01-25T20:47:10.809Z,20.52
2023-01-25T20:49:41.192Z,19.98
2023-01-25T20:52:13.731Z,19.70
2023-01-25T20:54:43.978Z,21.00
2023-01-25T20:57:16.330Z,19.67
2023-01-25T20:59:46.147Z,20.13
2023-01-25T21:02:15.925Z,19.98
2023-01-25T21:04:45.839Z,19.85
2023-01-25T21:07:15.584Z,20.45
2023-01-25T21:09:45.376Z,21.02
2023-01-25T21:12:17.782Z,20.17
2023-01-25T21:14:47.563Z,22.20
2023-01-25T21:17:17.291Z,21.38
2023-01-25T21:19:47.024Z,19.27
2023-01-25T21:22:17.003Z,19.85
2023-01-25T21:24:46.791Z,19.63
2023-01-25T21:27:19.288Z,20.25
2023-01-25T21:29:49.066Z,20.90
2023-01-25T21:32:18.853Z,21.35
2023-01-25T21:34:49.538Z,21.25
2023-01-25T21:37:19.303Z,20.80
2023-01-25T21:39:49.061Z,21.40
2023-01-25T21:42:21.454Z,19.92
2023-01-25T21:45:03.784Z,21.77
2023-01-25T21:47:34.054Z,22.73
2023-01-25T21:50:16.286Z,22.30
2023-01-25T21:52:46.145Z,22.42
2023-01-25T21:55:16.014Z,22.27
2023-01-25T21:57:49.043Z,22.48
2023-01-25T22:00:20.532Z,22.80
2023-01-25T22:02:54.365Z,22.88
2023-01-25T22:05:24.129Z,22.05
2023-01-25T22:07:53.918Z,23.15
2023-01-25T22:10:24.406Z,20.80
2023-01-25T22:12:56.774Z,22.08
2023-01-25T22:15:26.645Z,22.90
2023-01-25T22:17:56.505Z,22.00
2023-01-25T22:20:26.253Z,21.92
2023-01-25T22:22:56.048Z,22.42
2023-01-25T22:25:25.881Z,22.35
2023-01-25T22:28:02.494Z,23.05
2023-01-25T22:30:32.355Z,24.05
2023-01-25T22:33:02.148Z,23.20
2023-01-25T22:35:31.875Z,24.02
2023-01-25T22:38:01.838Z,23.10
2023-01-25T22:40:31.622Z,23.35
2023-01-25T22:43:03.939Z,22.45
2023-01-25T22:45:33.698Z,22.30
2023-01-25T22:48:03.938Z,22.25
2023-01-25T22:50:34.277Z,22.02
2023-01-25T22:53:04.125Z,22.80
2023-01-25T22:55:33.930Z,23.63
2023-01-25T22:58:06.324Z,23.52
2023-01-25T23:00:36.169Z,22.50
2023-01-25T23:03:06.119Z,24.15
2023-01-25T23:05:36.022Z,21.05
2023-01-25T23:08:05.961Z,23.10
2023-01-25T23:10:35.712Z,21.77
2023-01-25T23:13:08.099Z,22.92
2023-01-25T23:15:37.949Z,22.55
2023-01-25T23:18:20.643Z,21.60
2023-01-25T23:20:50.418Z,22.25
2023-01-25T23:23:20.161Z,22.20
2023-01-25T23:25:49.906Z,21.85
2023-01-25T23:28:25.173Z,23.35
2023-01-25T23:31:11.340Z,21.90
2023-01-25T23:33:41.258Z,21.58
2023-01-25T23:36:12.426Z,21.67
2023-01-25T23:38:44.880Z,20.80
2023-01-25T23:41:15.117Z,20.58
2023-01-25T23:43:48.347Z,20.20
2023-01-25T23:46:18.748Z,20.17
2023-01-25T23:48:49.614Z,20.67
2023-01-25T23:51:20.405Z,18.08
2023-01-25T23:53:50.682Z,18.92
2023-01-25T23:56:22.678Z,17.40
2023-01-25T23:58:55.270Z,17.80
